Kenner, LA

1:37 PM CDT on July 05, 2015 (GMT -0500)
Driftwood | | Change Station
CLOSE
Current Station
Personal Weather Station
Location: Kenner, LA
Elevation: 7 ft
Nearby Weather Stations

Elev 7 ft 30.03 °N, 90.23 °W | Updated 7 seconds ago

Overcast
Overcast
90.3 °F
Feels Like 98 °F
N
0.2
Wind Variable Wind from West
Gusts 2.5 mph

Today
High -- | Low -- °F
--% Chance of Precip.
Yesterday
High -- | Low -- °F
Precip. -- in
6:05 AM 8:05 PM
Waning Gibbous, 83% visible
Pressure 30.13 in
Visibility 10.0 miles
Clouds Scattered Clouds 3000 ft
Mostly Cloudy 17000 ft
Overcast 25000 ft
Heat Index 98 °F
Dew Point 72 °F
Humidity 55%
Rainfall 0.00 in
Snow Depth Not available.
UV 10.0 out of 12
Pollen .50 out of 12
Air Quality Not available.
Flu Activity Not available.
METAR KMSY 051753Z 22009KT 10SM SCT030 BKN170 OVC250 33/23 A3011 RMK AO2 SLP201 60000 T03280228 10328 20267 58003 $

More Conditions Fewer Conditions

Pressure 30.13 in
Visibility 10.0 miles
Clouds Scattered Clouds 3000 ft
Mostly Cloudy 17000 ft
Overcast 25000 ft
Heat Index 98 °F
Dew Point 72 °F
Humidity 55%
Rainfall 0.00 in
Snow Depth Not available.
UV 10.0 out of 12
Pollen .50 out of 12
Air Quality Not available.
Flu Activity Not available.
METAR KMSY 051753Z 22009KT 10SM SCT030 BKN170 OVC250 33/23 A3011 RMK AO2 SLP201 60000 T03280228 10328 20267 58003 $

More Conditions Fewer Conditions

10-Day Weather Forecast

×

Almanac

Astronomy

Jul. 05, 2015 Rise Set
Actual Time
Civil Twilight
Nautical Twilight
Astronomical Twilight
Moon
Length of Visible Light
Length of Day
Tomorrow will be .
, % of the Moon is Illuminated

Today's Extremes

State Highs State Lows

Community

WunderPhotos

Upload Photos

1,835,345 photos uploaded!

WunderBlogs® & News

Nearby

Air Quality

  Air Quality AQ Index Pollutant
Not available.

Snow Depth

Station Depth Elevation

Earthquake Activity

City Distance Mag. Time & Date
Minimum magnitude displayed is 2.5.

Coastal Water Temperatures

Place Temperature

Stations

Nearby Weather Stations

Station Location Temp. Windchill Dew Point Humidity Wind Precip. Elev Updated Type